createdAt,value
2022-10-03T00:01:59.361Z,2.20
2022-10-03T00:05:24.568Z,2.60
2022-10-03T00:08:51.872Z,2.20
2022-10-03T00:12:15.150Z,2.80
2022-10-03T00:15:16.005Z,3.00
2022-10-03T00:18:15.602Z,2.40
2022-10-03T00:21:28.215Z,2.40
2022-10-03T00:25:12.565Z,5.00
2022-10-03T00:28:24.758Z,5.00
2022-10-03T00:31:52.526Z,3.00
2022-10-03T00:35:07.133Z,2.80
2022-10-03T00:38:06.871Z,2.40
2022-10-03T00:41:31.039Z,2.00
2022-10-03T00:44:46.236Z,5.80
2022-10-03T00:48:03.905Z,3.80
2022-10-03T00:51:25.950Z,1.80
2022-10-03T00:54:29.280Z,2.20
2022-10-03T00:57:29.543Z,3.00
2022-10-03T01:00:28.567Z,3.00
2022-10-03T01:03:40.922Z,1.60
2022-10-03T01:06:53.444Z,1.80
2022-10-03T01:10:09.791Z,2.00
2022-10-03T01:13:32.670Z,1.60
2022-10-03T01:16:52.021Z,1.20
2022-10-03T01:19:55.969Z,2.00
2022-10-03T01:22:58.324Z,4.00
2022-10-03T01:26:19.937Z,2.60
2022-10-03T01:29:45.457Z,2.80
2022-10-03T01:32:53.183Z,5.40
2022-10-03T01:35:53.739Z,2.00
2022-10-03T01:38:53.858Z,5.80
2022-10-03T01:42:21.583Z,2.40
2022-10-03T01:45:30.876Z,3.60
2022-10-03T01:48:45.899Z,3.00
2022-10-03T01:51:51.560Z,1.80
2022-10-03T01:55:01.674Z,3.00
2022-10-03T01:58:05.357Z,6.00
2022-10-03T02:01:09.924Z,2.00
2022-10-03T02:04:14.635Z,2.20
2022-10-03T02:07:27.018Z,2.00
2022-10-03T02:10:31.723Z,1.80
2022-10-03T02:13:50.557Z,2.20
2022-10-03T02:17:10.875Z,6.40
2022-10-03T02:20:23.814Z,2.80
2022-10-03T02:23:33.247Z,7.60
2022-10-03T02:26:45.182Z,1.40
2022-10-03T02:29:52.405Z,3.00
2022-10-03T02:33:05.051Z,1.80
2022-10-03T02:36:26.085Z,3.00
2022-10-03T02:39:35.817Z,3.80
2022-10-03T02:42:51.770Z,3.20
2022-10-03T02:46:07.361Z,2.40
2022-10-03T02:49:25.777Z,3.40
2022-10-03T02:52:57.693Z,1.80
2022-10-03T02:55:54.909Z,2.40
2022-10-03T02:58:51.667Z,1.40
2022-10-03T03:02:13.815Z,4.00
2022-10-03T03:06:04.840Z,2.80
2022-10-03T03:09:17.372Z,3.80
2022-10-03T03:12:29.060Z,2.60
2022-10-03T03:15:47.903Z,3.00
2022-10-03T03:19:09.375Z,1.00
2022-10-03T03:22:16.440Z,4.60
2022-10-03T03:25:33.484Z,4.00
2022-10-03T03:28:54.864Z,2.20
2022-10-03T03:32:14.645Z,3.00
2022-10-03T03:35:39.419Z,3.80
2022-10-03T03:39:14.303Z,2.00
2022-10-03T03:42:44.914Z,3.80
2022-10-03T03:46:04.430Z,3.00
2022-10-03T03:49:13.727Z,2.00
2022-10-03T03:52:11.152Z,1.20
2022-10-03T03:55:17.033Z,1.40
2022-10-03T03:58:26.976Z,1.60
2022-10-03T04:01:43.457Z,1.60
2022-10-03T04:05:15.011Z,1.40
2022-10-03T04:08:38.076Z,1.80
2022-10-03T04:11:57.696Z,4.40
2022-10-03T04:15:07.435Z,2.00
2022-10-03T04:18:25.639Z,1.80
2022-10-03T04:21:41.071Z,2.60
2022-10-03T04:25:26.335Z,2.80
2022-10-03T04:28:40.706Z,3.00
2022-10-03T04:31:44.720Z,1.40
2022-10-03T04:35:00.627Z,2.00
2022-10-03T04:38:06.120Z,2.60
2022-10-03T04:41:05.449Z,2.00
2022-10-03T04:44:12.167Z,1.80
2022-10-03T04:47:17.225Z,1.80
2022-10-03T04:50:32.739Z,1.80
2022-10-03T04:53:57.939Z,1.00
2022-10-03T04:57:32.469Z,1.00
2022-10-03T05:00:46.715Z,2.40
2022-10-03T05:03:53.322Z,3.00
2022-10-03T05:07:02.590Z,0.80
2022-10-03T05:10:22.246Z,1.00
2022-10-03T05:13:42.485Z,2.60
2022-10-03T05:17:06.233Z,3.00
2022-10-03T05:20:13.223Z,1.00
2022-10-03T05:23:34.936Z,4.20
2022-10-03T05:26:50.137Z,2.80
2022-10-03T05:30:08.060Z,1.80
2022-10-03T05:33:42.898Z,1.80
2022-10-03T05:36:55.652Z,1.80
2022-10-03T05:39:54.128Z,0.60
2022-10-03T05:43:03.956Z,2.20
2022-10-03T05:46:10.123Z,1.60
2022-10-03T05:49:28.868Z,5.40
2022-10-03T05:52:41.526Z,1.80
2022-10-03T05:56:02.347Z,1.80
2022-10-03T05:59:23.232Z,4.00
2022-10-03T06:02:50.964Z,1.60
2022-10-03T06:06:02.145Z,4.60
2022-10-03T06:09:08.581Z,1.60
2022-10-03T06:12:10.152Z,2.60
2022-10-03T06:15:19.423Z,7.00
2022-10-03T06:18:51.396Z,2.80
2022-10-03T06:22:16.952Z,2.20
2022-10-03T06:25:26.052Z,1.00
2022-10-03T06:28:47.546Z,2.00
2022-10-03T06:31:49.316Z,2.00
2022-10-03T06:34:56.129Z,5.00
2022-10-03T06:38:11.737Z,2.40
2022-10-03T06:41:40.283Z,3.80
2022-10-03T06:45:09.799Z,1.80
2022-10-03T06:48:19.317Z,2.40
2022-10-03T06:51:51.596Z,2.00
2022-10-03T06:55:01.929Z,8.20
2022-10-03T06:58:24.246Z,6.00
2022-10-03T07:01:37.006Z,2.80
2022-10-03T07:05:05.558Z,6.60
2022-10-03T07:08:15.750Z,1.80
2022-10-03T07:11:20.571Z,3.40
2022-10-03T07:14:38.937Z,5.60
2022-10-03T07:17:54.343Z,3.80
2022-10-03T07:21:16.675Z,9.80
2022-10-03T07:24:49.051Z,5.60
2022-10-03T07:28:10.039Z,2.20
2022-10-03T07:31:07.047Z,6.20
2022-10-03T07:34:22.792Z,1.40
2022-10-03T07:38:06.694Z,3.80
2022-10-03T07:41:45.237Z,2.60
2022-10-03T07:45:09.587Z,0.00
2022-10-03T07:48:14.871Z,2.00
2022-10-03T07:51:33.824Z,2.40
2022-10-03T07:54:49.316Z,2.60
2022-10-03T07:58:20.410Z,5.60
2022-10-03T08:01:29.546Z,2.00
2022-10-03T08:05:28.139Z,2.60
2022-10-03T08:08:25.032Z,4.60
2022-10-03T08:11:31.725Z,3.20
2022-10-03T08:14:42.462Z,2.00
2022-10-03T08:17:57.749Z,0.00
2022-10-03T08:21:01.564Z,1.20
2022-10-03T08:24:29.088Z,5.00
2022-10-03T08:28:10.421Z,5.60
2022-10-03T08:31:21.284Z,4.60
2022-10-03T08:34:23.443Z,2.00
2022-10-03T08:38:06.279Z,2.20
2022-10-03T08:41:28.111Z,0.80
2022-10-03T08:44:31.092Z,2.20
2022-10-03T08:47:51.476Z,1.80
2022-10-03T08:51:04.934Z,2.40
2022-10-03T08:54:11.391Z,1.40
2022-10-03T08:57:33.016Z,1.40
2022-10-03T09:00:58.068Z,0.60
2022-10-03T09:04:26.224Z,2.80
2022-10-03T09:07:23.726Z,1.80
2022-10-03T09:10:58.075Z,0.60
2022-10-03T09:14:27.306Z,2.20
2022-10-03T09:17:49.362Z,0.00
2022-10-03T09:21:11.095Z,0.80
2022-10-03T09:24:45.820Z,0.80
2022-10-03T09:28:25.146Z,1.40
2022-10-03T09:31:58.816Z,1.80
2022-10-03T09:35:14.767Z,1.20
2022-10-03T09:38:23.229Z,3.80
2022-10-03T09:41:39.274Z,3.00
2022-10-03T09:44:39.567Z,2.20
2022-10-03T09:47:48.963Z,1.00
2022-10-03T09:51:09.312Z,0.00
2022-10-03T09:54:22.443Z,1.00
2022-10-03T09:57:39.136Z,3.00
2022-10-03T10:01:11.443Z,0.00
2022-10-03T10:04:53.813Z,1.40
2022-10-03T10:08:33.907Z,2.60
2022-10-03T10:11:52.099Z,2.20
2022-10-03T10:14:56.382Z,1.40
2022-10-03T10:18:08.531Z,1.00
2022-10-03T10:21:46.336Z,1.60
2022-10-03T10:25:09.367Z,1.00
2022-10-03T10:28:15.670Z,8.00
2022-10-03T10:31:50.216Z,4.20
2022-10-03T10:35:31.759Z,5.40
2022-10-03T10:38:50.295Z,11.75
2022-10-03T10:42:00.789Z,12.50
2022-10-03T10:45:17.016Z,30.50
2022-10-03T10:48:39.220Z,20.50
2022-10-03T10:52:11.403Z,20.25
2022-10-03T10:55:14.524Z,24.00
2022-10-03T10:58:23.433Z,41.50
2022-10-03T11:01:40.851Z,38.25
2022-10-03T11:05:07.141Z,23.50
2022-10-03T11:08:49.959Z,47.00
2022-10-03T11:11:59.652Z,51.00
2022-10-03T11:15:15.201Z,55.00
2022-10-03T11:18:49.656Z,50.00
2022-10-03T11:22:04.544Z,59.25
2022-10-03T11:25:29.517Z,55.75
2022-10-03T11:28:44.982Z,59.75
2022-10-03T11:32:16.103Z,60.00
2022-10-03T11:35:58.369Z,58.75
2022-10-03T11:39:05.879Z,55.25
2022-10-03T11:42:13.682Z,53.75
2022-10-03T11:45:36.464Z,54.00
2022-10-03T11:49:02.305Z,58.75
2022-10-03T11:52:09.108Z,58.75
2022-10-03T11:55:17.647Z,53.00
2022-10-03T11:58:52.608Z,58.75
2022-10-03T12:02:00.671Z,55.50
2022-10-03T12:05:07.765Z,43.75
2022-10-03T12:08:32.229Z,55.50
2022-10-03T12:11:34.379Z,45.25
2022-10-03T12:14:44.943Z,51.00
2022-10-03T12:17:46.664Z,56.00
2022-10-03T12:21:01.180Z,54.50
2022-10-03T12:24:23.735Z,58.00
2022-10-03T12:27:26.516Z,54.75
2022-10-03T12:30:23.479Z,55.25
2022-10-03T12:33:48.002Z,55.50
2022-10-03T12:36:55.713Z,53.00
2022-10-03T12:40:06.624Z,58.00
2022-10-03T12:43:14.486Z,60.00
2022-10-03T12:46:39.253Z,57.25
2022-10-03T12:49:54.932Z,57.00
2022-10-03T12:53:07.749Z,57.00
2022-10-03T12:56:13.335Z,54.75
2022-10-03T12:59:44.913Z,58.25
2022-10-03T13:02:43.422Z,56.50
2022-10-03T13:05:58.247Z,49.50
2022-10-03T13:09:14.296Z,57.25
2022-10-03T13:12:40.258Z,55.00
2022-10-03T13:15:49.332Z,58.50
2022-10-03T13:18:50.870Z,51.00
2022-10-03T13:22:21.734Z,53.50
2022-10-03T13:25:21.924Z,53.25
2022-10-03T13:28:56.277Z,48.25
2022-10-03T13:32:05.463Z,57.50
2022-10-03T13:35:24.135Z,54.75
2022-10-03T13:39:01.140Z,54.75
2022-10-03T13:42:16.875Z,60.33
2022-10-03T13:45:15.334Z,50.75
2022-10-03T13:48:20.962Z,57.00
2022-10-03T13:51:47.607Z,58.00
2022-10-03T13:55:13.211Z,53.00
2022-10-03T13:58:16.360Z,52.50
2022-10-03T14:01:24.302Z,54.33
2022-10-03T14:04:47.997Z,57.00
2022-10-03T14:08:03.671Z,53.50
2022-10-03T14:11:00.455Z,55.67
2022-10-03T14:14:01.503Z,48.00
2022-10-03T14:17:04.864Z,56.50
2022-10-03T14:20:19.979Z,58.00
2022-10-03T14:23:32.883Z,39.75
2022-10-03T14:26:53.181Z,52.00
2022-10-03T14:30:16.941Z,54.00
2022-10-03T14:33:17.776Z,53.75
2022-10-03T14:36:40.018Z,56.33
2022-10-03T14:40:28.333Z,57.00
2022-10-03T14:43:38.254Z,57.67
2022-10-03T14:46:39.112Z,56.00
2022-10-03T14:49:57.969Z,52.75
2022-10-03T14:53:06.447Z,54.50
2022-10-03T14:56:09.871Z,48.25
2022-10-03T14:59:29.564Z,50.67
2022-10-03T15:02:38.666Z,53.33
2022-10-03T15:05:36.307Z,46.25
2022-10-03T15:08:57.154Z,51.25
2022-10-03T15:12:03.102Z,52.00
2022-10-03T15:15:03.550Z,45.25
2022-10-03T15:18:03.062Z,34.00
2022-10-03T15:21:00.760Z,50.75
2022-10-03T15:24:05.218Z,50.25
2022-10-03T15:27:08.336Z,23.25
2022-10-03T15:30:06.318Z,24.50
2022-10-03T15:33:24.023Z,34.00
2022-10-03T15:36:23.475Z,29.00
2022-10-03T15:39:24.492Z,29.50
2022-10-03T15:42:23.368Z,36.25
2022-10-03T15:45:26.219Z,36.00
2022-10-03T15:48:25.228Z,40.50
2022-10-03T15:51:24.601Z,31.25
2022-10-03T15:54:23.590Z,17.75
2022-10-03T15:57:29.370Z,21.33
2022-10-03T16:00:29.012Z,40.00
2022-10-03T16:03:47.647Z,10.67
2022-10-03T16:07:07.811Z,15.00
2022-10-03T16:10:34.618Z,23.00
2022-10-03T16:13:49.055Z,16.33
2022-10-03T16:16:48.816Z,11.00
2022-10-03T16:19:53.733Z,17.75
2022-10-03T16:23:09.097Z,21.00
2022-10-03T16:26:22.633Z,13.25
2022-10-03T16:29:25.019Z,5.25
2022-10-03T16:32:23.903Z,18.67
2022-10-03T16:35:41.597Z,11.00
2022-10-03T16:38:59.823Z,19.75
2022-10-03T16:41:56.872Z,13.50
2022-10-03T16:44:55.575Z,16.67
2022-10-03T16:48:13.759Z,24.00
2022-10-03T16:51:37.900Z,31.00
2022-10-03T16:54:36.418Z,4.25
2022-10-03T16:57:42.218Z,18.67
2022-10-03T17:01:28.309Z,20.25
2022-10-03T17:04:39.712Z,18.25
2022-10-03T17:07:47.896Z,10.25
2022-10-03T17:10:44.959Z,10.00
2022-10-03T17:13:43.984Z,25.00
2022-10-03T17:16:47.731Z,25.25
2022-10-03T17:19:46.143Z,26.00
2022-10-03T17:22:45.403Z,25.00
2022-10-03T17:25:49.504Z,26.75
2022-10-03T17:28:54.638Z,26.00
2022-10-03T17:32:22.064Z,12.25
2022-10-03T17:35:39.759Z,24.50
2022-10-03T17:39:14.477Z,26.00
2022-10-03T17:42:28.475Z,29.50
2022-10-03T17:45:34.932Z,14.00
2022-10-03T17:48:40.088Z,14.75
2022-10-03T17:51:44.734Z,24.75
2022-10-03T17:54:41.735Z,19.00
2022-10-03T17:57:57.921Z,9.50
2022-10-03T18:01:10.277Z,13.33
2022-10-03T18:04:21.689Z,11.50
2022-10-03T18:07:19.514Z,13.67
2022-10-03T18:10:25.347Z,10.75
2022-10-03T18:13:24.351Z,10.67
2022-10-03T18:16:38.940Z,9.33
2022-10-03T18:19:47.464Z,15.00
2022-10-03T18:22:48.310Z,9.33
2022-10-03T18:26:18.706Z,12.00
2022-10-03T18:29:33.400Z,11.25
2022-10-03T18:32:32.697Z,13.33
2022-10-03T18:35:30.411Z,7.00
2022-10-03T18:38:28.597Z,9.00
2022-10-03T18:41:26.037Z,11.33
2022-10-03T18:44:22.825Z,13.33
2022-10-03T18:47:27.210Z,4.33
2022-10-03T18:50:31.895Z,10.00
2022-10-03T18:53:37.506Z,12.33
2022-10-03T18:56:35.128Z,11.00
2022-10-03T18:59:47.774Z,7.33
2022-10-03T19:02:51.835Z,6.50
2022-10-03T19:05:55.822Z,6.75
2022-10-03T19:08:56.645Z,8.50
2022-10-03T19:12:18.488Z,6.75
2022-10-03T19:15:34.504Z,2.80
2022-10-03T19:18:41.743Z,3.80
2022-10-03T19:21:40.234Z,5.00
2022-10-03T19:24:57.418Z,5.00
2022-10-03T19:28:01.920Z,7.25
2022-10-03T19:31:26.774Z,2.00
2022-10-03T19:34:39.483Z,8.00
2022-10-03T19:37:45.255Z,2.50
2022-10-03T19:40:55.247Z,2.00
2022-10-03T19:43:53.326Z,1.20
2022-10-03T19:47:01.990Z,3.25
2022-10-03T19:50:14.359Z,2.00
2022-10-03T19:53:15.152Z,1.60
2022-10-03T19:56:15.574Z,3.00
2022-10-03T19:59:15.345Z,4.00
2022-10-03T20:02:12.998Z,2.00
2022-10-03T20:05:20.183Z,1.00
2022-10-03T20:08:31.832Z,1.00
2022-10-03T20:11:41.178Z,1.20
2022-10-03T20:14:41.705Z,1.00
2022-10-03T20:17:41.024Z,1.20
2022-10-03T20:20:38.467Z,1.00
2022-10-03T20:23:36.073Z,1.80
2022-10-03T20:26:38.712Z,1.60
2022-10-03T20:29:43.529Z,2.20
2022-10-03T20:32:43.979Z,1.80
2022-10-03T20:35:52.305Z,1.40
2022-10-03T20:39:02.241Z,1.00
2022-10-03T20:42:07.455Z,1.00
2022-10-03T20:45:25.237Z,1.60
2022-10-03T20:48:23.532Z,3.00
2022-10-03T20:51:22.580Z,1.40
2022-10-03T20:54:24.296Z,0.20
2022-10-03T20:57:23.086Z,1.40
2022-10-03T21:00:22.371Z,1.00
2022-10-03T21:03:26.608Z,2.00
2022-10-03T21:06:28.866Z,2.00
2022-10-03T21:09:53.632Z,2.00
2022-10-03T21:13:02.414Z,2.60
2022-10-03T21:16:01.265Z,2.00
2022-10-03T21:19:03.917Z,1.60
2022-10-03T21:22:05.383Z,1.20
2022-10-03T21:25:05.205Z,2.00
2022-10-03T21:28:05.521Z,1.80
2022-10-03T21:31:21.847Z,1.40
2022-10-03T21:34:57.299Z,1.80
2022-10-03T21:38:27.006Z,4.50
2022-10-03T21:42:03.272Z,3.00
2022-10-03T21:45:29.062Z,6.00
2022-10-03T21:48:25.729Z,8.20
2022-10-03T21:51:29.158Z,3.20
2022-10-03T21:54:41.143Z,3.40
2022-10-03T21:57:59.544Z,5.60
2022-10-03T22:01:03.667Z,8.00
2022-10-03T22:04:15.383Z,5.00
2022-10-03T22:07:15.415Z,3.00
2022-10-03T22:10:21.871Z,3.20
2022-10-03T22:13:19.254Z,4.00
2022-10-03T22:16:16.023Z,3.00
2022-10-03T22:19:16.591Z,3.00
2022-10-03T22:22:23.524Z,1.60
2022-10-03T22:25:45.414Z,5.00
2022-10-03T22:28:57.901Z,3.00
2022-10-03T22:32:18.338Z,4.80
2022-10-03T22:35:34.296Z,4.20
2022-10-03T22:38:33.249Z,3.00
2022-10-03T22:41:30.019Z,3.60
2022-10-03T22:44:28.722Z,4.00
2022-10-03T22:47:28.932Z,6.00
2022-10-03T22:50:30.620Z,8.60
2022-10-03T22:53:31.098Z,6.20
2022-10-03T22:56:54.950Z,3.00
2022-10-03T23:00:10.920Z,2.80
2022-10-03T23:03:16.931Z,6.40
2022-10-03T23:06:27.230Z,7.00
2022-10-03T23:09:28.665Z,7.60
2022-10-03T23:12:28.156Z,9.60
2022-10-03T23:15:24.773Z,8.20
2022-10-03T23:18:37.882Z,4.00
2022-10-03T23:21:40.593Z,7.00
2022-10-03T23:24:41.357Z,6.80
2022-10-03T23:27:53.351Z,6.40
2022-10-03T23:30:53.437Z,7.00
2022-10-03T23:33:50.883Z,6.80
2022-10-03T23:36:59.490Z,4.80
2022-10-03T23:40:00.272Z,8.80
2022-10-03T23:43:23.227Z,7.20
2022-10-03T23:46:20.652Z,9.00
2022-10-03T23:49:18.428Z,11.00
2022-10-03T23:52:44.836Z,8.60
2022-10-03T23:55:42.086Z,8.60
2022-10-03T23:58:39.191Z,7.00
